Time,TemperatureF,DewpointF,PressureIn,WindDirection,WindDirectionDegrees,WindSpeedMPH,WindSpeedGustMPH,Humidity,HourlyPrecipIn,Conditions,Clouds,dailyrainin,SoftwareType,DateUTC
2013-11-03 00:07:00,37.5,31.0,30.16,NW,309,0.0,-999.0,77,-99.99,,,0.04,weatherlink.com 1.10,2013-11-03 05:07:00,
2013-11-03 00:21:00,37.2,30.0,30.16,NW,309,0.0,-999.0,76,-99.99,,,0.00,weatherlink.com 1.10,2013-11-03 05:21:00,
2013-11-03 00:36:00,36.8,30.0,30.16,NW,309,0.0,-999.0,76,-99.99,,,0.00,weatherlink.com 1.10,2013-11-03 05:36:00,
2013-11-03 00:50:00,36.6,29.0,30.16,NW,309,0.0,-999.0,75,-99.99,,,0.00,weatherlink.com 1.10,2013-11-03 05:50:00,
2013-11-03 01:04:00,36.5,29.0,30.16,NW,309,0.0,-999.0,75,-99.99,,,0.00,weatherlink.com 1.10,2013-11-03 06:04:00,
2013-11-03 01:18:00,36.4,29.0,30.16,NW,309,0.0,-999.0,75,-99.99,,,0.00,weatherlink.com 1.10,2013-11-03 06:18:00,
2013-11-03 01:32:00,36.3,29.0,30.17,NW,309,0.0,-999.0,74,-99.99,,,0.00,weatherlink.com 1.10,2013-11-03 06:32:00,
2013-11-03 01:46:00,36.5,29.0,30.17,NW,309,0.0,-999.0,74,-99.99,,,0.00,weatherlink.com 1.10,2013-11-03 06:46:00,
2013-11-03 01:01:00,36.4,29.0,30.17,NW,309,0.0,-999.0,74,-99.99,,,0.00,weatherlink.com 1.10,2013-11-03 07:01:00,
2013-11-03 01:15:00,36.2,29.0,30.17,NW,309,0.0,-999.0,74,-99.99,,,0.00,weatherlink.com 1.10,2013-11-03 07:15:00,
2013-11-03 01:29:00,35.8,28.0,30.17,NW,309,0.0,-999.0,74,-99.99,,,0.00,weatherlink.com 1.10,2013-11-03 07:29:00,
2013-11-03 01:43:00,35.8,28.0,30.17,NW,304,0.0,-999.0,73,-99.99,,,0.00,weatherlink.com 1.10,2013-11-03 07:43:00,
2013-11-03 01:57:00,36.2,28.0,30.17,NW,304,0.0,-999.0,73,-99.99,,,0.00,weatherlink.com 1.10,2013-11-03 07:57:00,
2013-11-03 02:12:00,36.6,28.0,30.17,WSW,246,0.0,-999.0,72,-99.99,,,0.00,weatherlink.com 1.10,2013-11-03 08:12:00,
2013-11-03 02:26:00,36.8,29.0,30.16,WSW,246,0.0,-999.0,72,-99.99,,,0.00,weatherlink.com 1.10,2013-11-03 08:26:00,
2013-11-03 02:40:00,37.0,29.0,30.16,WSW,241,0.0,-999.0,73,-99.99,,,0.00,weatherlink.com 1.10,2013-11-03 08:40:00,
2013-11-03 02:54:00,37.0,29.0,30.16,WSW,240,0.0,-999.0,73,-99.99,,,0.00,weatherlink.com 1.10,2013-11-03 08:54:00,
2013-11-03 03:08:00,37.0,29.0,30.16,SW,236,0.0,-999.0,74,-99.99,,,0.00,weatherlink.com 1.10,2013-11-03 09:08:00,
2013-11-03 03:23:00,37.1,30.0,30.16,SW,236,0.0,-999.0,74,-99.99,,,0.00,weatherlink.com 1.10,2013-11-03 09:23:00,
2013-11-03 03:37:00,37.0,30.0,30.16,SW,236,2.0,-999.0,75,-99.99,,,0.00,weatherlink.com 1.10,2013-11-03 09:37:00,
2013-11-03 03:51:00,37.1,30.0,30.16,SW,236,0.0,-999.0,75,-99.99,,,0.00,weatherlink.com 1.10,2013-11-03 09:51:00,
2013-11-03 04:05:00,37.1,30.0,30.15,SW,236,0.0,-999.0,76,-99.99,,,0.00,weatherlink.com 1.10,2013-11-03 10:05:00,
2013-11-03 04:19:00,37.0,30.0,30.15,SW,236,0.0,-999.0,76,-99.99,,,0.00,weatherlink.com 1.10,2013-11-03 10:19:00,
2013-11-03 04:33:00,36.9,30.0,30.16,SW,236,0.0,-999.0,76,-99.99,,,0.00,weatherlink.com 1.10,2013-11-03 10:33:00,
2013-11-03 04:48:00,36.8,30.0,30.16,SSW,198,3.0,-999.0,77,-99.99,,,0.00,weatherlink.com 1.10,2013-11-03 10:48:00,
2013-11-03 05:02:00,37.1,30.0,30.16,SSW,198,0.0,-999.0,76,-99.99,,,0.00,weatherlink.com 1.10,2013-11-03 11:02:00,
2013-11-03 05:16:00,37.5,31.0,30.16,SSW,198,0.0,-999.0,77,-99.99,,,0.00,weatherlink.com 1.10,2013-11-03 11:16:00,
2013-11-03 05:30:00,37.6,31.0,30.16,SSW,196,0.0,-999.0,78,-99.99,,,0.00,weatherlink.com 1.10,2013-11-03 11:30:00,
2013-11-03 05:45:00,37.3,31.0,30.16,SSW,196,0.0,-999.0,79,-99.99,,,0.00,weatherlink.com 1.10,2013-11-03 11:45:00,
2013-11-03 05:59:00,36.9,31.0,30.16,SSW,196,0.0,-999.0,79,-99.99,,,0.00,weatherlink.com 1.10,2013-11-03 11:59:00,
2013-11-03 06:13:00,36.8,31.0,30.16,SSW,196,0.0,-999.0,79,-99.99,,,0.00,weatherlink.com 1.10,2013-11-03 12:13:00,
2013-11-03 06:27:00,36.7,31.0,30.16,SSW,195,0.0,-999.0,79,-99.99,,,0.00,weatherlink.com 1.10,2013-11-03 12:27:00,
2013-11-03 06:42:00,36.8,31.0,30.16,SSW,195,0.0,-999.0,78,-99.99,,,0.00,weatherlink.com 1.10,2013-11-03 12:42:00,
2013-11-03 06:56:00,36.9,31.0,30.16,SSW,195,0.0,-999.0,78,-99.99,,,0.00,weatherlink.com 1.10,2013-11-03 12:56:00,
2013-11-03 07:10:00,37.1,31.0,30.16,South,188,0.0,-999.0,78,-99.99,,,0.00,weatherlink.com 1.10,2013-11-03 13:10:00,
2013-11-03 07:24:00,37.9,32.0,30.16,SSE,159,2.0,-999.0,78,-99.99,,,0.00,weatherlink.com 1.10,2013-11-03 13:24:00,
2013-11-03 07:38:00,39.4,34.0,30.15,SSE,160,2.0,-999.0,80,-99.99,,,0.00,weatherlink.com 1.10,2013-11-03 13:38:00,
2013-11-03 07:52:00,40.3,36.0,30.15,SSE,165,3.0,-999.0,83,-99.99,,,0.00,weatherlink.com 1.10,2013-11-03 13:52:00,
2013-11-03 08:07:00,40.4,35.0,30.16,SSE,163,0.0,-999.0,82,-99.99,,,0.00,weatherlink.com 1.10,2013-11-03 14:07:00,
2013-11-03 08:21:00,41.5,36.0,30.15,South,186,0.0,-999.0,80,-99.99,,,0.00,weatherlink.com 1.10,2013-11-03 14:21:00,
2013-11-03 08:35:00,42.8,36.0,30.15,SE,146,0.0,-999.0,76,-99.99,,,0.00,weatherlink.com 1.10,2013-11-03 14:35:00,
2013-11-03 08:50:00,44.1,36.0,30.15,SE,144,4.0,-999.0,74,-99.99,,,0.00,weatherlink.com 1.10,2013-11-03 14:50:00,
2013-11-03 09:04:00,45.3,36.0,30.14,SSE,149,1.0,-999.0,71,-99.99,,,0.00,weatherlink.com 1.10,2013-11-03 15:04:00,
2013-11-03 09:18:00,47.0,37.0,30.14,SE,138,0.0,-999.0,69,-99.99,,,0.00,weatherlink.com 1.10,2013-11-03 15:18:00,
2013-11-03 09:32:00,48.6,37.0,30.13,South,183,2.0,-999.0,65,-99.99,,,0.00,weatherlink.com 1.10,2013-11-03 15:32:00,
2013-11-03 09:46:00,50.1,38.0,30.13,SSE,151,3.0,-999.0,62,-99.99,,,0.00,weatherlink.com 1.10,2013-11-03 15:46:00,
2013-11-03 10:00:00,51.4,37.0,30.12,SE,146,6.0,-999.0,58,-99.99,,,0.00,weatherlink.com 1.10,2013-11-03 16:00:00,
2013-11-03 10:15:00,52.6,37.0,30.11,SE,141,5.0,-999.0,56,-99.99,,,0.00,weatherlink.com 1.10,2013-11-03 16:15:00,
2013-11-03 10:29:00,53.6,37.0,30.11,South,175,6.0,-999.0,54,-99.99,,,0.00,weatherlink.com 1.10,2013-11-03 16:29:00,
2013-11-03 10:43:00,54.7,38.0,30.10,SSW,195,7.0,-999.0,53,-99.99,,,0.00,weatherlink.com 1.10,2013-11-03 16:43:00,
2013-11-03 10:58:00,54.8,37.0,30.09,SSE,149,3.0,-999.0,52,-99.99,,,0.00,weatherlink.com 1.10,2013-11-03 16:58:00,
2013-11-03 11:18:00,55.2,36.0,30.09,SE,135,12.0,-999.0,49,-99.99,,,0.00,weatherlink.com 1.10,2013-11-03 17:18:00,
2013-11-03 11:32:00,55.7,36.0,30.08,South,169,7.0,-999.0,48,-99.99,,,0.00,weatherlink.com 1.10,2013-11-03 17:32:00,
2013-11-03 11:51:00,56.3,36.0,30.06,SSE,147,5.0,-999.0,47,-99.99,,,0.00,weatherlink.com 1.10,2013-11-03 17:51:00,
2013-11-03 12:05:00,55.9,35.0,30.05,SSE,147,4.0,-999.0,46,-99.99,,,0.00,weatherlink.com 1.10,2013-11-03 18:05:00,
2013-11-03 22:10:00,51.9,38.0,29.93,SSE,159,5.0,-999.0,59,-99.99,,,0.00,weatherlink.com 1.10,2013-11-04 04:10:00,
2013-11-03 23:05:00,51.0,38.0,29.94,SSE,153,3.0,-999.0,61,-99.99,,,0.00,weatherlink.com 1.10,2013-11-04 05:05:00,
2013-11-03 23:19:00,50.7,38.0,29.93,SE,137,2.0,-999.0,61,-99.99,,,0.00,weatherlink.com 1.10,2013-11-04 05:19:00,
2013-11-03 23:34:00,50.5,38.0,29.93,SSE,161,4.0,-999.0,62,-99.99,,,0.00,weatherlink.com 1.10,2013-11-04 05:34:00,
2013-11-03 23:48:00,50.4,38.0,29.93,SE,142,3.0,-999.0,63,-99.99,,,0.00,weatherlink.com 1.10,2013-11-04 05:48:00,